Time;durP1;ratioP1;P1;durP2;ratioP2;P2;SDS_P1;SDS_P2;PMS_P1;PMS_P2;Temp;Humidity;BMP_temperature;BMP_pressure;BME280_temperature;BME280_humidity;BME280_pressure;Samples;Min_cycle;Max_cycle;Signal;HPM_P1;HPM_P2
2022/07/20 00:02:33;;;;;;;14.47;7.63;;;;;;;;;;7656500;23;20169;-62
2022/07/20 00:05:34;;;;;;;12.67;7.70;;;;;;;;;;7656677;23;20024;-63
2022/07/20 00:11:53;;;;;;;16.40;7.93;;;;;;;;;;7656882;23;20108;-63
2022/07/20 00:14:54;;;;;;;15.47;7.33;;;;;;;;;;7657911;23;20055;-62
2022/07/20 00:17:55;;;;;;;12.60;7.27;;;;;;;;;;7653708;23;20027;-62
2022/07/20 00:20:55;;;;;;;13.93;7.73;;;;;;;;;;7668570;23;20483;-62
2022/07/20 00:23:56;;;;;;;13.93;7.50;;;;;;;;;;7658109;23;20072;-62
2022/07/20 00:26:56;;;;;;;14.33;7.83;;;;;;;;;;7655248;23;20332;-62
2022/07/20 00:29:57;;;;;;;13.30;7.73;;;;;;;;;;7656689;23;20334;-62
2022/07/20 00:32:57;;;;;;;14.03;7.77;;;;;;;;;;7657343;23;20033;-62
2022/07/20 00:35:58;;;;;;;14.00;7.53;;;;;;;;;;7656728;23;20016;-62
2022/07/20 00:39:00;;;;;;;13.50;7.57;;;;;;;;;;7656144;23;20013;-63
2022/07/20 00:42:00;;;;;;;17.50;7.93;;;;;;;;;;7656087;23;20232;-62
2022/07/20 00:45:02;;;;;;;15.10;7.83;;;;;;;;;;7657993;23;20024;-62
2022/07/20 00:48:03;;;;;;;;;;;;;;;;;;7656618;23;20059;-62
2022/07/20 00:51:03;;;;;;;14.15;7.78;;;;;;;;;;7658354;23;20026;-63
2022/07/20 00:54:05;;;;;;;15.30;7.83;;;;;;;;;;7659596;23;20029;-62
2022/07/20 00:57:06;;;;;;;13.00;7.70;;;;;;;;;;7655973;23;20120;-62
2022/07/20 01:00:07;;;;;;;12.57;7.37;;;;;;;;;;7657842;23;20325;-62
2022/07/20 01:03:08;;;;;;;;;;;;;;;;;;7656894;23;20095;-62
2022/07/20 01:06:09;;;;;;;13.43;7.72;;;;;;;;;;7656653;23;20055;-62
2022/07/20 01:09:09;;;;;;;13.00;7.63;;;;;;;;;;7656684;23;20025;-62
2022/07/20 01:12:11;;;;;;;16.20;7.90;;;;;;;;;;7656157;23;20021;-61
2022/07/20 01:15:11;;;;;;;13.18;8.50;;;;;;;;;;7657077;23;20017;-66
2022/07/20 01:18:12;;;;;;;13.70;8.30;;;;;;;;;;7658383;23;20358;-63
2022/07/20 01:21:13;;;;;;;17.00;8.13;;;;;;;;;;7662754;23;20480;-64
2022/07/20 01:24:13;;;;;;;17.37;8.40;;;;;;;;;;7660636;23;20027;-63
2022/07/20 01:27:14;;;;;;;15.13;8.37;;;;;;;;;;7660421;23;20132;-63
2022/07/20 01:30:15;;;;;;;17.20;8.67;;;;;;;;;;7660700;23;20021;-63
2022/07/20 01:33:16;;;;;;;11.23;7.73;;;;;;;;;;7661227;23;20032;-63
2022/07/20 01:36:17;;;;;;;15.43;8.90;;;;;;;;;;7659135;23;20017;-63
2022/07/20 01:39:17;;;;;;;16.40;9.23;;;;;;;;;;7658851;23;20021;-63
2022/07/20 01:42:18;;;;;;;15.93;8.90;;;;;;;;;;7662271;23;20023;-63
2022/07/20 01:45:19;;;;;;;16.13;9.27;;;;;;;;;;7671075;23;20107;-63
2022/07/20 01:48:19;;;;;;;16.42;8.60;;;;;;;;;;7656935;23;20529;-63
2022/07/20 01:51:20;;;;;;;15.60;9.33;;;;;;;;;;7659663;23;20033;-64
2022/07/20 01:54:20;;;;;;;18.08;9.80;;;;;;;;;;7660466;23;20112;-63
2022/07/20 01:57:21;;;;;;;17.50;9.67;;;;;;;;;;7657399;23;20033;-63
2022/07/20 02:00:22;;;;;;;18.13;8.85;;;;;;;;;;7658335;23;20043;-63
2022/07/20 02:03:23;;;;;;;15.30;9.40;;;;;;;;;;7659741;23;20100;-63
2022/07/20 02:06:23;;;;;;;15.80;9.77;;;;;;;;;;7658676;23;20017;-64
2022/07/20 02:09:24;;;;;;;15.37;9.43;;;;;;;;;;7657651;23;20036;-63
2022/07/20 02:12:24;;;;;;;15.97;10.47;;;;;;;;;;7660225;23;20845;-63
2022/07/20 02:18:45;;;;;;;16.38;9.38;;;;;;;;;;7668868;23;20031;-63
2022/07/20 02:21:46;;;;;;;15.73;9.75;;;;;;;;;;7660039;23;20044;-69
2022/07/20 02:24:46;;;;;;;16.03;9.37;;;;;;;;;;7660264;23;20027;-66
2022/07/20 02:27:47;;;;;;;17.50;10.10;;;;;;;;;;7655812;23;20048;-63
2022/07/20 02:30:47;;;;;;;17.48;10.13;;;;;;;;;;7659414;23;20017;-63
2022/07/20 02:33:48;;;;;;;16.15;9.57;;;;;;;;;;7660036;23;20103;-65
2022/07/20 02:36:48;;;;;;;18.23;9.30;;;;;;;;;;7658700;23;20023;-63
2022/07/20 02:39:49;;;;;;;17.63;9.90;;;;;;;;;;7656790;23;20071;-63
2022/07/20 02:42:49;;;;;;;17.10;9.93;;;;;;;;;;7664183;23;20025;-63
2022/07/20 02:45:50;;;;;;;18.50;9.93;;;;;;;;;;7670919;23;20021;-66
2022/07/20 02:48:50;;;;;;;19.47;10.77;;;;;;;;;;7669119;23;20132;-63
2022/07/20 02:51:51;;;;;;;16.70;10.07;;;;;;;;;;7666260;23;20021;-64
2022/07/20 02:54:51;;;;;;;17.67;10.13;;;;;;;;;;7667275;23;20023;-63
2022/07/20 02:57:52;;;;;;;15.90;10.03;;;;;;;;;;7668217;23;20486;-63
2022/07/20 03:00:53;;;;;;;16.70;10.10;;;;;;;;;;7667806;23;20017;-66
2022/07/20 03:03:53;;;;;;;15.37;10.23;;;;;;;;;;7667572;23;20441;-63
2022/07/20 03:06:54;;;;;;;18.63;11.03;;;;;;;;;;7665840;23;20883;-66
2022/07/20 03:09:54;;;;;;;17.35;9.68;;;;;;;;;;7666812;23;20017;-63
2022/07/20 03:12:55;;;;;;;16.40;10.00;;;;;;;;;;7667781;23;20092;-63
2022/07/20 03:15:55;;;;;;;18.75;10.02;;;;;;;;;;7667728;23;20021;-63
2022/07/20 03:18:56;;;;;;;18.27;10.73;;;;;;;;;;7667153;23;20092;-63
2022/07/20 03:21:57;;;;;;;17.10;10.50;;;;;;;;;;7668106;23;20025;-63
2022/07/20 03:24:57;;;;;;;17.98;10.63;;;;;;;;;;7668048;23;20092;-63
2022/07/20 03:28:00;;;;;;;16.50;10.60;;;;;;;;;;7664917;23;20021;-64
2022/07/20 03:31:01;;;;;;;18.67;10.40;;;;;;;;;;7665678;23;20044;-63
2022/07/20 03:34:01;;;;;;;20.33;11.40;;;;;;;;;;7639507;23;20099;-64
2022/07/20 03:37:02;;;;;;;18.30;11.47;;;;;;;;;;7664846;23;20017;-62
2022/07/20 03:40:04;;;;;;;20.13;11.23;;;;;;;;;;7679096;23;20036;-64
2022/07/20 03:43:05;;;;;;;16.40;10.95;;;;;;;;;;7668450;23;20024;-64
2022/07/20 03:46:05;;;;;;;16.92;11.18;;;;;;;;;;7667101;23;20365;-63
2022/07/20 03:49:06;;;;;;;22.17;12.03;;;;;;;;;;7667977;23;20171;-67
2022/07/20 03:52:06;;;;;;;20.33;11.73;;;;;;;;;;7668474;23;20021;-65
2022/07/20 03:55:07;;;;;;;18.08;11.20;;;;;;;;;;7666992;23;20590;-62
2022/07/20 03:58:08;;;;;;;18.47;11.30;;;;;;;;;;7668078;23;20456;-62
2022/07/20 04:01:09;;;;;;;17.20;10.93;;;;;;;;;;7670001;23;20099;-63
2022/07/20 04:04:09;;;;;;;21.53;11.33;;;;;;;;;;7672810;23;20013;-63
2022/07/20 04:07:10;;;;;;;19.07;11.40;;;;;;;;;;7670591;23;20885;-65
2022/07/20 04:10:11;;;;;;;21.40;11.95;;;;;;;;;;7665816;23;20364;-63
2022/07/20 04:13:11;;;;;;;20.27;11.83;;;;;;;;;;7665888;23;20826;-63
2022/07/20 04:16:13;;;;;;;22.70;11.83;;;;;;;;;;7666486;23;20023;-64
2022/07/20 04:19:13;;;;;;;26.33;12.20;;;;;;;;;;7671571;23;20087;-62
2022/07/20 04:22:14;;;;;;;20.53;11.47;;;;;;;;;;7670259;23;20025;-62
2022/07/20 04:25:15;;;;;;;23.07;11.70;;;;;;;;;;7670775;23;20088;-64
2022/07/20 04:28:16;;;;;;;18.03;11.20;;;;;;;;;;7668462;23;20499;-64
2022/07/20 04:31:16;;;;;;;21.27;11.43;;;;;;;;;;7668468;23;20329;-62
2022/07/20 04:34:17;;;;;;;17.70;11.93;;;;;;;;;;7683657;23;20388;-62
2022/07/20 04:37:17;;;;;;;19.13;11.83;;;;;;;;;;7668121;23;20536;-62
2022/07/20 04:40:18;;;;;;;22.58;12.38;;;;;;;;;;7684133;23;20096;-63
2022/07/20 04:43:19;;;;;;;19.93;13.23;;;;;;;;;;7670584;23;20099;-62
2022/07/20 04:46:20;;;;;;;21.55;12.52;;;;;;;;;;7671925;23;20036;-62
2022/07/20 04:49:20;;;;;;;20.37;13.20;;;;;;;;;;7668452;23;20099;-62
2022/07/20 04:52:21;;;;;;;21.67;13.00;;;;;;;;;;7665596;23;20361;-63
2022/07/20 04:55:22;;;;;;;21.23;12.80;;;;;;;;;;7676777;23;20021;-62
2022/07/20 04:58:22;;;;;;;23.57;13.27;;;;;;;;;;7662932;23;20029;-62
2022/07/20 05:01:24;;;;;;;28.23;12.83;;;;;;;;;;7662672;23;20096;-62
2022/07/20 05:04:24;;;;;;;19.73;12.73;;;;;;;;;;7663867;23;20017;-62
2022/07/20 05:07:26;;;;;;;19.25;12.23;;;;;;;;;;7662868;23;20362;-68
2022/07/20 05:10:27;;;;;;;21.97;12.63;;;;;;;;;;7665765;23;20013;-63
2022/07/20 05:13:27;;;;;;;21.50;12.30;;;;;;;;;;7662874;23;20013;-62
2022/07/20 05:16:28;;;;;;;20.93;12.73;;;;;;;;;;7667865;23;20217;-63
2022/07/20 05:19:28;;;;;;;19.93;12.53;;;;;;;;;;7662632;23;20017;-64
2022/07/20 05:22:29;;;;;;;19.93;12.50;;;;;;;;;;7665858;23;20017;-63
2022/07/20 05:25:29;;;;;;;24.67;13.17;;;;;;;;;;7668164;23;20025;-63
2022/07/20 05:28:31;;;;;;;20.87;12.70;;;;;;;;;;7666541;23;20032;-63
2022/07/20 05:31:31;;;;;;;21.80;12.60;;;;;;;;;;7666444;23;20070;-63
2022/07/20 05:34:32;;;;;;;21.47;11.60;;;;;;;;;;7665532;23;20021;-65
2022/07/20 05:37:33;;;;;;;20.37;11.23;;;;;;;;;;7662790;23;20099;-68
2022/07/20 05:40:33;;;;;;;19.80;10.30;;;;;;;;;;7667177;23;20017;-66
2022/07/20 05:43:34;;;;;;;21.83;10.90;;;;;;;;;;7666109;23;20496;-63
2022/07/20 05:46:34;;;;;;;20.07;10.83;;;;;;;;;;7667624;23;20040;-64
2022/07/20 05:49:38;;;;;;;21.27;11.10;;;;;;;;;;7669524;23;20314;-63
2022/07/20 05:52:39;;;;;;;24.00;10.57;;;;;;;;;;7671099;23;20087;-63
2022/07/20 05:55:41;;;;;;;21.00;11.53;;;;;;;;;;7671011;23;20513;-63
2022/07/20 05:58:42;;;;;;;22.48;11.27;;;;;;;;;;7669395;23;20094;-65
2022/07/20 06:01:44;;;;;;;21.57;11.53;;;;;;;;;;7669114;23;20088;-63
2022/07/20 06:04:45;;;;;;;23.75;12.65;;;;;;;;;;7668645;23;20105;-63
2022/07/20 06:07:45;;;;;;;26.70;11.73;;;;;;;;;;7667227;23;20040;-65
2022/07/20 06:10:46;;;;;;;28.60;11.50;;;;;;;;;;7677769;23;20095;-64
2022/07/20 06:13:46;;;;;;;23.87;11.33;;;;;;;;;;7669295;23;20384;-65
2022/07/20 06:16:47;;;;;;;24.07;10.37;;;;;;;;;;7669182;23;20017;-63
2022/07/20 06:19:47;;;;;;;20.33;10.63;;;;;;;;;;7667831;23;20067;-63
2022/07/20 06:22:48;;;;;;;20.17;9.90;;;;;;;;;;7665157;23;20051;-64
2022/07/20 06:25:49;;;;;;;22.87;11.30;;;;;;;;;;7668018;23;20100;-63
2022/07/20 06:28:50;;;;;;;26.57;11.23;;;;;;;;;;7665989;23;20036;-63
2022/07/20 06:31:51;;;;;;;22.40;11.87;;;;;;;;;;7667547;23;20128;-64
2022/07/20 06:34:52;;;;;;;21.90;11.15;;;;;;;;;;7670687;23;20021;-65
2022/07/20 06:37:53;;;;;;;24.83;10.82;;;;;;;;;;7670389;23;20028;-67
2022/07/20 06:40:54;;;;;;;25.15;10.75;;;;;;;;;;7674204;23;20099;-64
2022/07/20 06:43:54;;;;;;;18.53;10.07;;;;;;;;;;7671597;23;20340;-64
2022/07/20 06:46:55;;;;;;;21.40;10.33;;;;;;;;;;7668120;23;20020;-64
2022/07/20 06:49:55;;;;;;;16.97;8.97;;;;;;;;;;7667094;23;20097;-64
2022/07/20 06:52:56;;;;;;;21.27;9.20;;;;;;;;;;7666350;23;20333;-63
2022/07/20 06:55:57;;;;;;;16.00;8.43;;;;;;;;;;7666521;23;20045;-63
2022/07/20 06:58:57;;;;;;;20.70;9.10;;;;;;;;;;7666331;23;20108;-67
2022/07/20 07:01:58;;;;;;;16.83;8.77;;;;;;;;;;7666379;23;20092;-64
2022/07/20 07:05:01;;;;;;;18.95;9.68;;;;;;;;;;7665575;23;20067;-65
2022/07/20 07:08:01;;;;;;;18.33;8.95;;;;;;;;;;7664665;23;20577;-65
2022/07/20 07:11:02;;;;;;;21.90;9.47;;;;;;;;;;7666442;23;20052;-64
2022/07/20 07:14:03;;;;;;;15.10;7.50;;;;;;;;;;7667713;23;20088;-63
2022/07/20 07:17:04;;;;;;;15.85;6.95;;;;;;;;;;7666385;23;20070;-64
2022/07/20 07:20:05;;;;;;;15.23;8.10;;;;;;;;;;7666112;23;20708;-64
2022/07/20 07:23:06;;;;;;;18.48;8.25;;;;;;;;;;7665805;23;20052;-65
2022/07/20 07:26:06;;;;;;;14.97;7.17;;;;;;;;;;7667729;23;20529;-63
2022/07/20 07:29:08;;;;;;;14.53;7.53;;;;;;;;;;7666295;23;20320;-64
2022/07/20 07:32:08;;;;;;;15.85;7.00;;;;;;;;;;7672065;23;20092;-63
2022/07/20 07:35:09;;;;;;;13.10;7.23;;;;;;;;;;7670161;23;20024;-64
2022/07/20 07:38:09;;;;;;;11.57;6.73;;;;;;;;;;7670786;23;20101;-64
2022/07/20 07:41:10;;;;;;;13.82;7.30;;;;;;;;;;7670719;23;20028;-65
2022/07/20 07:44:11;;;;;;;11.43;6.97;;;;;;;;;;7669747;23;20116;-66
2022/07/20 07:47:11;;;;;;;11.23;6.33;;;;;;;;;;7670534;23;20020;-64
2022/07/20 07:50:12;;;;;;;13.07;6.50;;;;;;;;;;7671326;23;20192;-66
2022/07/20 07:53:13;;;;;;;15.30;6.57;;;;;;;;;;7672207;23;20067;-64
2022/07/20 07:56:13;;;;;;;9.87;6.10;;;;;;;;;;7671229;23;20017;-65
2022/07/20 07:59:15;;;;;;;14.37;7.13;;;;;;;;;;7672076;23;20739;-65
2022/07/20 08:02:15;;;;;;;11.20;7.20;;;;;;;;;;7671583;23;20021;-64
2022/07/20 08:05:16;;;;;;;12.70;7.20;;;;;;;;;;7668175;23;20016;-64
2022/07/20 08:08:17;;;;;;;12.50;7.10;;;;;;;;;;7667198;23;20475;-64
2022/07/20 08:11:18;;;;;;;12.02;7.25;;;;;;;;;;7668067;23;20025;-64
2022/07/20 08:14:20;;;;;;;17.40;6.93;;;;;;;;;;7668978;23;20520;-64
2022/07/20 08:17:20;;;;;;;16.52;6.57;;;;;;;;;;7638451;23;20108;-64
2022/07/20 08:20:22;;;;;;;12.97;6.83;;;;;;;;;;7666088;23;20017;-64
2022/07/20 08:23:22;;;;;;;12.88;7.05;;;;;;;;;;7667650;23;20096;-64
2022/07/20 08:26:23;;;;;;;16.83;7.43;;;;;;;;;;7667476;23;20506;-64
2022/07/20 08:29:24;;;;;;;15.87;7.43;;;;;;;;;;7667844;23;20103;-64
2022/07/20 08:32:26;;;;;;;11.40;6.27;;;;;;;;;;7640447;23;20400;-64
2022/07/20 08:35:27;;;;;;;12.55;6.80;;;;;;;;;;7666390;23;20104;-65
2022/07/20 08:38:27;;;;;;;14.70;6.37;;;;;;;;;;7665287;23;20094;-65
2022/07/20 08:41:30;;;;;;;14.13;6.63;;;;;;;;;;7665632;23;20092;-65
2022/07/20 08:44:31;;;;;;;12.93;6.97;;;;;;;;;;7665247;23;20457;-65
2022/07/20 08:47:34;;;;;;;16.53;6.47;;;;;;;;;;7668506;23;20021;-64
2022/07/20 08:50:35;;;;;;;11.63;6.15;;;;;;;;;;7665815;23;20045;-64
2022/07/20 08:53:36;;;;;;;12.13;6.55;;;;;;;;;;7665904;23;20027;-64
2022/07/20 08:56:36;;;;;;;11.48;6.65;;;;;;;;;;7640876;23;20029;-64
2022/07/20 08:59:37;;;;;;;13.05;6.50;;;;;;;;;;7666178;23;20021;-65
2022/07/20 09:02:50;;;;;;;12.93;6.30;;;;;;;;;;7667107;23;20114;-66
2022/07/20 09:06:05;;;;;;;12.55;6.20;;;;;;;;;;7665569;23;20338;-65
2022/07/20 09:09:06;;;;;;;10.68;5.97;;;;;;;;;;7664815;23;20021;-64
2022/07/20 09:12:07;;;;;;;;;;;;;;;;;;7665834;23;20382;-64
2022/07/20 09:15:36;;;;;;;12.10;5.77;;;;;;;;;;7667246;23;19995;-64
2022/07/20 09:18:36;;;;;;;9.20;5.85;;;;;;;;;;7666643;23;20052;-73
2022/07/20 09:21:37;;;;;;;10.77;6.00;;;;;;;;;;7666180;23;20382;-66
2022/07/20 09:24:38;;;;;;;10.02;5.20;;;;;;;;;;7668778;23;20072;-65
2022/07/20 09:27:39;;;;;;;13.40;6.20;;;;;;;;;;7666520;23;20096;-65
2022/07/20 09:30:40;;;;;;;;;;;;;;;;;;7667753;23;20120;-68
2022/07/20 09:34:05;;;;;;;9.13;5.17;;;;;;;;;;7666171;23;19920;-67
2022/07/20 09:37:16;;;;;;;9.27;5.10;;;;;;;;;;7666041;23;20045;-66
2022/07/20 09:40:17;;;;;;;11.07;5.70;;;;;;;;;;7670195;23;20021;-67
2022/07/20 09:43:29;;;;;;;12.25;6.05;;;;;;;;;;7670209;23;20539;-64
2022/07/20 09:46:32;;;;;;;8.75;5.35;;;;;;;;;;7666207;23;20100;-65
2022/07/20 09:49:34;;;;;;;8.00;5.55;;;;;;;;;;7668943;23;20096;-65
2022/07/20 09:52:34;;;;;;;10.60;5.43;;;;;;;;;;7667367;23;20100;-66
2022/07/20 09:55:37;;;;;;;7.28;4.97;;;;;;;;;;7669037;23;20023;-65
2022/07/20 09:58:38;;;;;;;11.70;6.00;;;;;;;;;;7666628;23;20123;-65
2022/07/20 10:01:54;;;;;;;9.82;5.13;;;;;;;;;;7669604;23;20831;-66
2022/07/20 10:04:56;;;;;;;7.63;4.68;;;;;;;;;;7668198;23;20013;-65
2022/07/20 10:08:02;;;;;;;8.40;4.80;;;;;;;;;;7668695;23;20029;-65
2022/07/20 10:11:02;;;;;;;9.95;4.28;;;;;;;;;;7667680;23;20847;-70
2022/07/20 10:14:05;;;;;;;8.07;4.60;;;;;;;;;;7665660;23;20021;-65
2022/07/20 10:17:05;;;;;;;10.10;4.95;;;;;;;;;;7668922;23;20021;-65
2022/07/20 10:20:38;;;;;;;8.88;4.78;;;;;;;;;;7667385;23;20155;-65
2022/07/20 10:23:39;;;;;;;8.40;4.30;;;;;;;;;;7617878;23;20025;-65
2022/07/20 10:26:40;;;;;;;9.35;4.90;;;;;;;;;;7669061;23;20096;-65
2022/07/20 10:29:52;;;;;;;9.30;4.95;;;;;;;;;;7666168;23;20790;-65
2022/07/20 10:32:58;;;;;;;8.48;4.47;;;;;;;;;;7667033;23;20100;-62
2022/07/20 10:39:44;;;;;;;9.90;4.88;;;;;;;;;;7666740;23;20100;-65
2022/07/20 10:42:48;;;;;;;7.57;4.65;;;;;;;;;;7667753;23;20080;-67
2022/07/20 10:45:49;;;;;;;7.68;5.10;;;;;;;;;;7669212;23;20056;-64
2022/07/20 10:48:49;;;;;;;7.53;4.77;;;;;;;;;;7667797;23;20373;-65
2022/07/20 10:52:26;;;;;;;10.02;4.68;;;;;;;;;;7665324;23;20425;-64
2022/07/20 10:55:32;;;;;;;9.32;5.00;;;;;;;;;;7666557;23;20455;-64
2022/07/20 10:58:36;;;;;;;6.90;4.70;;;;;;;;;;7668449;23;20055;-64
2022/07/20 11:01:37;;;;;;;7.93;4.57;;;;;;;;;;7669244;23;20021;-64
2022/07/20 11:04:42;;;;;;;9.80;4.82;;;;;;;;;;7668265;23;20096;-64
2022/07/20 11:07:42;;;;;;;9.52;4.90;;;;;;;;;;7667862;23;20546;-68
2022/07/20 11:10:43;;;;;;;7.35;4.82;;;;;;;;;;7666989;23;20028;-66
2022/07/20 11:13:46;;;;;;;7.33;4.50;;;;;;;;;;7666400;23;20017;-65
2022/07/20 11:16:54;;;;;;;8.43;4.78;;;;;;;;;;7676441;23;20048;-64
2022/07/20 11:19:54;;;;;;;8.18;4.32;;;;;;;;;;7666524;23;20586;-64
2022/07/20 11:22:56;;;;;;;7.00;4.60;;;;;;;;;;7667217;23;20028;-65
2022/07/20 11:26:00;;;;;;;8.93;4.40;;;;;;;;;;7668150;23;20575;-65
2022/07/20 11:29:01;;;;;;;7.38;4.53;;;;;;;;;;7670049;23;20082;-66
2022/07/20 11:32:08;;;;;;;;;;;;;;;;;;7671138;23;20096;-66
2022/07/20 11:35:09;;;;;;;8.02;4.60;;;;;;;;;;7667680;23;19919;-64
2022/07/20 11:38:09;;;;;;;7.63;4.70;;;;;;;;;;7666193;23;20045;-65
2022/07/20 11:41:11;;;;;;;;;;;;;;;;;;7668113;23;20021;-65
2022/07/20 11:44:20;;;;;;;;;;;;;;;;;;7666941;23;20347;-64
2022/07/20 11:47:21;;;;;;;7.35;4.70;;;;;;;;;;7668471;23;20272;-65
2022/07/20 11:50:21;;;;;;;;;;;;;;;;;;7669245;23;20117;-65
2022/07/20 11:53:24;;;;;;;11.20;4.93;;;;;;;;;;7666755;23;19920;-66
2022/07/20 11:56:29;;;;;;;9.20;4.53;;;;;;;;;;7666300;23;20021;-65
2022/07/20 11:59:30;;;;;;;8.23;4.55;;;;;;;;;;7672883;23;20148;-71
2022/07/20 12:02:30;;;;;;;;;;;;;;;;;;7666688;23;20558;-70
2022/07/20 12:05:33;;;;;;;7.27;4.30;;;;;;;;;;7672440;23;20008;-65
2022/07/20 12:08:34;;;;;;;9.23;5.30;;;;;;;;;;7672636;23;20021;-72
2022/07/20 12:11:35;;;;;;;;;;;;;;;;;;7672319;23;20020;-64
2022/07/20 12:14:41;;;;;;;9.73;5.03;;;;;;;;;;7670642;23;20638;-71
2022/07/20 12:17:52;;;;;;;8.73;4.70;;;;;;;;;;7672806;23;20071;-64
2022/07/20 12:21:00;;;;;;;10.50;4.63;;;;;;;;;;7671690;23;20479;-66
2022/07/20 12:24:04;;;;;;;8.48;4.65;;;;;;;;;;7672105;23;20041;-64
2022/07/20 12:27:05;;;;;;;8.30;4.93;;;;;;;;;;7669721;23;20028;-64
2022/07/20 12:30:24;;;;;;;;;;;;;;;;;;7673530;23;20037;-64
2022/07/20 12:33:24;;;;;;;13.10;5.05;;;;;;;;;;7672070;23;20255;-64
2022/07/20 12:36:35;;;;;;;;;;;;;;;;;;7668345;23;20028;-65
2022/07/20 12:39:42;;;;;;;8.77;4.63;;;;;;;;;;7664856;23;19974;-64
2022/07/20 12:42:44;;;;;;;9.40;4.97;;;;;;;;;;7664330;23;20017;-68
2022/07/20 12:45:44;;;;;;;8.80;4.78;;;;;;;;;;7665424;23;20044;-70
2022/07/20 12:48:46;;;;;;;;;;;;;;;;;;7666918;23;20409;-64
2022/07/20 12:51:48;;;;;;;9.00;4.82;;;;;;;;;;7664547;23;19926;-70
2022/07/20 12:54:49;;;;;;;14.45;5.28;;;;;;;;;;7664011;23;20850;-71
2022/07/20 12:57:49;;;;;;;7.88;4.90;;;;;;;;;;7663937;23;20056;-64
2022/07/20 13:00:50;;;;;;;11.88;5.18;;;;;;;;;;7668064;23;20032;-65
2022/07/20 13:03:51;;;;;;;8.35;5.07;;;;;;;;;;7667008;23;20103;-65
2022/07/20 13:06:52;;;;;;;;;;;;;;;;;;7666915;23;20017;-64
2022/07/20 13:09:52;;;;;;;9.93;4.63;;;;;;;;;;7658470;23;19920;-65
2022/07/20 13:12:53;;;;;;;;;;;;;;;;;;7659453;23;20023;-65
2022/07/20 13:15:54;;;;;;;10.57;5.53;;;;;;;;;;7659601;23;19919;-65
2022/07/20 13:18:55;;;;;;;;;;;;;;;;;;7655250;23;20334;-64
2022/07/20 13:21:55;;;;;;;15.30;6.47;;;;;;;;;;7659179;23;19939;-66
2022/07/20 13:24:57;;;;;;;;;;;;;;;;;;7658045;23;20021;-64
2022/07/20 13:27:59;;;;;;;11.77;5.93;;;;;;;;;;7656374;23;19959;-64
2022/07/20 13:31:01;;;;;;;9.88;6.07;;;;;;;;;;7658676;23;20021;-65
2022/07/20 13:34:02;;;;;;;11.25;6.00;;;;;;;;;;7671506;23;20025;-65
2022/07/20 13:37:03;;;;;;;12.25;6.13;;;;;;;;;;7660941;23;20025;-64
2022/07/20 13:40:04;;;;;;;10.20;6.13;;;;;;;;;;7657065;23;20469;-65
2022/07/20 13:43:05;;;;;;;10.82;6.40;;;;;;;;;;7662701;23;20020;-64
2022/07/20 13:46:05;;;;;;;10.18;6.43;;;;;;;;;;7664399;23;20024;-65
2022/07/20 13:49:06;;;;;;;11.05;6.50;;;;;;;;;;7659791;23;20021;-65
2022/07/20 13:52:06;;;;;;;10.52;6.72;;;;;;;;;;7657469;23;20035;-68
2022/07/20 13:55:08;;;;;;;;;;;;;;;;;;7659366;23;20027;-64
2022/07/20 13:58:09;;;;;;;14.73;6.90;;;;;;;;;;7654691;23;19999;-63
2022/07/20 14:01:09;;;;;;;11.73;7.03;;;;;;;;;;7655289;23;20460;-66
2022/07/20 14:04:11;;;;;;;10.80;6.05;;;;;;;;;;7631674;23;20017;-63
2022/07/20 14:07:12;;;;;;;14.18;6.88;;;;;;;;;;7661889;23;20045;-63
2022/07/20 14:10:13;;;;;;;15.95;7.60;;;;;;;;;;7659680;23;20021;-63
2022/07/20 14:13:13;;;;;;;9.95;6.80;;;;;;;;;;7663516;23;20059;-63
2022/07/20 14:16:14;;;;;;;;;;;;;;;;;;7662101;23;20092;-63
2022/07/20 14:19:14;;;;;;;15.03;7.43;;;;;;;;;;7659007;23;19920;-67
2022/07/20 14:22:16;;;;;;;13.55;7.03;;;;;;;;;;7659680;23;20092;-66
2022/07/20 14:25:17;;;;;;;15.63;7.22;;;;;;;;;;7663467;23;20484;-65
2022/07/20 14:28:18;;;;;;;11.45;7.00;;;;;;;;;;7661342;23;20029;-70
2022/07/20 14:31:19;;;;;;;12.27;6.75;;;;;;;;;;7661612;23;20027;-64
2022/07/20 14:34:21;;;;;;;12.02;6.65;;;;;;;;;;7664759;23;20017;-63
2022/07/20 14:37:22;;;;;;;10.93;7.15;;;;;;;;;;7663471;23;20039;-63
2022/07/20 14:40:22;;;;;;;12.48;7.32;;;;;;;;;;7661179;23;20017;-67
2022/07/20 14:43:23;;;;;;;13.20;6.53;;;;;;;;;;7664128;23;20099;-63
2022/07/20 14:46:24;;;;;;;;;;;;;;;;;;7665500;23;20844;-64
2022/07/20 14:49:24;;;;;;;12.93;6.50;;;;;;;;;;7661891;23;19971;-63
2022/07/20 14:52:25;;;;;;;11.52;7.10;;;;;;;;;;7664980;23;20021;-64
2022/07/20 14:55:26;;;;;;;14.93;7.50;;;;;;;;;;7666089;23;20021;-66
2022/07/20 14:58:26;;;;;;;13.77;6.72;;;;;;;;;;7664655;23;20033;-66
2022/07/20 15:01:27;;;;;;;9.57;6.53;;;;;;;;;;7663725;23;20102;-65
2022/07/20 15:04:27;;;;;;;11.85;7.35;;;;;;;;;;7665150;23;20534;-63
2022/07/20 15:07:29;;;;;;;15.52;7.15;;;;;;;;;;7665246;23;20021;-62
2022/07/20 15:10:29;;;;;;;14.52;7.20;;;;;;;;;;7662975;23;20017;-62
2022/07/20 15:13:30;;;;;;;12.52;7.00;;;;;;;;;;7664961;23;20024;-63
2022/07/20 15:16:31;;;;;;;10.32;7.15;;;;;;;;;;7665010;23;20032;-66
2022/07/20 15:19:33;;;;;;;11.57;7.35;;;;;;;;;;7663330;23;20091;-64
2022/07/20 15:22:33;;;;;;;12.20;6.60;;;;;;;;;;7665410;23;20051;-64
2022/07/20 15:25:34;;;;;;;12.63;6.85;;;;;;;;;;7663279;23;20016;-64
2022/07/20 15:28:35;;;;;;;15.95;7.00;;;;;;;;;;7664211;23;20337;-65
2022/07/20 15:31:35;;;;;;;12.18;7.03;;;;;;;;;;7662371;23;20020;-64
2022/07/20 15:34:36;;;;;;;12.90;7.25;;;;;;;;;;7663267;23;20093;-64
2022/07/20 15:37:37;;;;;;;13.27;6.88;;;;;;;;;;7664333;23;20024;-65
2022/07/20 15:40:37;;;;;;;10.27;6.65;;;;;;;;;;7657912;23;20302;-65
2022/07/20 15:43:38;;;;;;;15.38;6.88;;;;;;;;;;7662676;23;20021;-66
2022/07/20 15:46:39;;;;;;;12.23;6.80;;;;;;;;;;7660899;23;20028;-64
2022/07/20 15:49:41;;;;;;;15.27;6.97;;;;;;;;;;7657569;23;20531;-64
2022/07/20 15:52:44;;;;;;;10.52;6.78;;;;;;;;;;7659897;23;20349;-65
2022/07/20 15:55:47;;;;;;;10.43;6.55;;;;;;;;;;7661589;23;20131;-68
2022/07/20 15:58:48;;;;;;;13.68;7.30;;;;;;;;;;7662886;23;20029;-65
2022/07/20 16:01:48;;;;;;;10.15;6.28;;;;;;;;;;7657364;23;20072;-65
2022/07/20 16:04:49;;;;;;;11.02;6.90;;;;;;;;;;7660894;23;20021;-68
2022/07/20 16:07:53;;;;;;;12.43;6.82;;;;;;;;;;7633831;23;20035;-65
2022/07/20 16:10:54;;;;;;;15.25;7.57;;;;;;;;;;7656582;23;20500;-65
2022/07/20 16:13:55;;;;;;;12.98;7.10;;;;;;;;;;7658685;23;20023;-67
2022/07/20 16:16:56;;;;;;;19.45;7.80;;;;;;;;;;7658400;23;20017;-66
2022/07/20 16:19:56;;;;;;;15.20;7.55;;;;;;;;;;7657183;23;20433;-64
2022/07/20 16:22:57;;;;;;;13.57;6.93;;;;;;;;;;7659341;23;20091;-65
2022/07/20 16:25:59;;;;;;;14.98;6.75;;;;;;;;;;7658374;23;20045;-63
2022/07/20 16:29:00;;;;;;;13.57;7.43;;;;;;;;;;7656718;23;20056;-64
2022/07/20 16:32:01;;;;;;;15.43;7.20;;;;;;;;;;7656134;23;20464;-64
2022/07/20 16:35:02;;;;;;;13.98;7.30;;;;;;;;;;7656226;23;20425;-64
2022/07/20 16:38:03;;;;;;;10.43;7.05;;;;;;;;;;7657041;23;20127;-64
2022/07/20 16:41:03;;;;;;;12.88;7.07;;;;;;;;;;7654794;23;20023;-64
2022/07/20 16:44:04;;;;;;;12.80;6.70;;;;;;;;;;7629880;23;20024;-63
2022/07/20 16:47:04;;;;;;;17.25;6.75;;;;;;;;;;7656532;23;20013;-63
2022/07/20 16:50:06;;;;;;;14.32;7.20;;;;;;;;;;7656915;23;20020;-64
2022/07/20 16:53:06;;;;;;;17.65;8.23;;;;;;;;;;7657974;23;20508;-64
2022/07/20 16:56:07;;;;;;;12.30;7.13;;;;;;;;;;7656880;23;20390;-64
2022/07/20 16:59:08;;;;;;;10.82;6.88;;;;;;;;;;7654308;23;20056;-70
2022/07/20 17:02:09;;;;;;;12.32;6.78;;;;;;;;;;7658401;23;20494;-64
2022/07/20 17:05:09;;;;;;;18.92;7.90;;;;;;;;;;7659635;23;20013;-64
2022/07/20 17:08:10;;;;;;;17.92;8.18;;;;;;;;;;7656335;23;20848;-69
2022/07/20 17:11:10;;;;;;;21.50;8.52;;;;;;;;;;7655002;23;20029;-64
2022/07/20 17:14:11;;;;;;;14.93;7.55;;;;;;;;;;7656618;23;20028;-66
2022/07/20 17:17:12;;;;;;;11.15;7.03;;;;;;;;;;7657645;23;20021;-63
2022/07/20 17:20:12;;;;;;;13.05;7.25;;;;;;;;;;7657010;23;20045;-63
2022/07/20 17:23:13;;;;;;;12.85;7.05;;;;;;;;;;7659064;23;20040;-63
2022/07/20 17:26:14;;;;;;;11.55;7.50;;;;;;;;;;7660051;23;20437;-66
2022/07/20 17:29:15;;;;;;;11.73;7.43;;;;;;;;;;7660418;23;20417;-64
2022/07/20 17:32:16;;;;;;;13.02;7.00;;;;;;;;;;7662454;23;20035;-63
2022/07/20 17:35:16;;;;;;;13.38;7.68;;;;;;;;;;7661970;23;20096;-65
2022/07/20 17:38:17;;;;;;;13.43;7.55;;;;;;;;;;7661780;23;20025;-63
2022/07/20 17:41:17;;;;;;;13.70;7.25;;;;;;;;;;7658541;23;20017;-63
2022/07/20 17:44:18;;;;;;;14.73;7.10;;;;;;;;;;7659238;23;20028;-64
2022/07/20 17:47:18;;;;;;;14.98;7.85;;;;;;;;;;7657766;23;20039;-63
2022/07/20 17:50:19;;;;;;;14.00;7.45;;;;;;;;;;7654427;23;20087;-62
2022/07/20 17:53:19;;;;;;;;;;;;;;;;;;7657688;23;20032;-66
2022/07/20 17:56:20;;;;;;;12.97;7.70;;;;;;;;;;7656839;23;20267;-69
2022/07/20 17:59:21;;;;;;;;;;;;;;;;;;7657094;23;20680;-63
2022/07/20 18:02:21;;;;;;;12.67;7.30;;;;;;;;;;7659193;23;19994;-63
2022/07/20 18:05:22;;;;;;;;;;;;;;;;;;7661100;23;20021;-62
2022/07/20 18:08:22;;;;;;;13.00;7.73;;;;;;;;;;7659265;23;19920;-63
2022/07/20 18:11:23;;;;;;;;;;;;;;;;;;7659663;23;20021;-63